sensor_id;sensor_type;location;lat;lon;timestamp;P1;durP1;ratioP1;P2;durP2;ratioP2
11524;SDS011;5819;49.648;8.330;2023-02-19T00:01:49;8.02;;;6.70;;
11524;SDS011;5819;49.648;8.330;2023-02-19T00:04:19;8.20;;;6.80;;
11524;SDS011;5819;49.648;8.330;2023-02-19T00:06:49;7.35;;;6.63;;
11524;SDS011;5819;49.648;8.330;2023-02-19T00:09:17;8.25;;;6.57;;
11524;SDS011;5819;49.648;8.330;2023-02-19T00:11:47;6.63;;;5.88;;
11524;SDS011;5819;49.648;8.330;2023-02-19T00:14:16;6.28;;;5.68;;
11524;SDS011;5819;49.648;8.330;2023-02-19T00:16:45;8.40;;;6.50;;
11524;SDS011;5819;49.648;8.330;2023-02-19T00:19:14;7.28;;;6.68;;
11524;SDS011;5819;49.648;8.330;2023-02-19T00:21:44;6.80;;;6.07;;
11524;SDS011;5819;49.648;8.330;2023-02-19T00:24:12;6.93;;;5.88;;
11524;SDS011;5819;49.648;8.330;2023-02-19T00:26:41;6.78;;;5.68;;
11524;SDS011;5819;49.648;8.330;2023-02-19T00:29:12;5.75;;;5.22;;
11524;SDS011;5819;49.648;8.330;2023-02-19T00:31:42;7.07;;;6.38;;
11524;SDS011;5819;49.648;8.330;2023-02-19T00:34:11;6.53;;;5.90;;
11524;SDS011;5819;49.648;8.330;2023-02-19T00:36:40;6.55;;;5.95;;
11524;SDS011;5819;49.648;8.330;2023-02-19T00:39:09;6.78;;;6.07;;
11524;SDS011;5819;49.648;8.330;2023-02-19T00:41:40;6.53;;;5.93;;
11524;SDS011;5819;49.648;8.330;2023-02-19T00:44:09;6.63;;;5.93;;
11524;SDS011;5819;49.648;8.330;2023-02-19T00:46:39;6.80;;;6.13;;
11524;SDS011;5819;49.648;8.330;2023-02-19T00:49:10;8.18;;;6.80;;
11524;SDS011;5819;49.648;8.330;2023-02-19T00:51:41;7.72;;;6.43;;
11524;SDS011;5819;49.648;8.330;2023-02-19T00:54:09;7.32;;;6.55;;
11524;SDS011;5819;49.648;8.330;2023-02-19T00:56:37;7.05;;;5.90;;
11524;SDS011;5819;49.648;8.330;2023-02-19T00:59:05;8.07;;;6.68;;
11524;SDS011;5819;49.648;8.330;2023-02-19T01:01:32;7.47;;;5.95;;
11524;SDS011;5819;49.648;8.330;2023-02-19T01:04:02;6.65;;;6.03;;
11524;SDS011;5819;49.648;8.330;2023-02-19T01:06:32;7.53;;;6.30;;
11524;SDS011;5819;49.648;8.330;2023-02-19T01:09:01;9.48;;;6.40;;
11524;SDS011;5819;49.648;8.330;2023-02-19T01:11:29;6.72;;;6.03;;
11524;SDS011;5819;49.648;8.330;2023-02-19T01:13:58;6.63;;;5.90;;
11524;SDS011;5819;49.648;8.330;2023-02-19T01:16:27;9.85;;;6.47;;
11524;SDS011;5819;49.648;8.330;2023-02-19T01:18:56;7.00;;;6.30;;
11524;SDS011;5819;49.648;8.330;2023-02-19T01:21:27;7.82;;;6.20;;
11524;SDS011;5819;49.648;8.330;2023-02-19T01:23:56;6.70;;;6.10;;
11524;SDS011;5819;49.648;8.330;2023-02-19T01:26:26;7.35;;;5.88;;
11524;SDS011;5819;49.648;8.330;2023-02-19T01:28:56;7.40;;;6.18;;
11524;SDS011;5819;49.648;8.330;2023-02-19T01:31:25;8.05;;;6.38;;
11524;SDS011;5819;49.648;8.330;2023-02-19T01:33:55;6.40;;;5.80;;
11524;SDS011;5819;49.648;8.330;2023-02-19T01:36:24;10.93;;;6.10;;
11524;SDS011;5819;49.648;8.330;2023-02-19T01:38:54;6.75;;;6.05;;
11524;SDS011;5819;49.648;8.330;2023-02-19T01:41:23;8.52;;;5.80;;
11524;SDS011;5819;49.648;8.330;2023-02-19T01:43:58;6.60;;;5.90;;
11524;SDS011;5819;49.648;8.330;2023-02-19T01:46:28;8.63;;;6.05;;
11524;SDS011;5819;49.648;8.330;2023-02-19T01:48:59;7.53;;;6.10;;
11524;SDS011;5819;49.648;8.330;2023-02-19T01:51:31;6.35;;;5.50;;
11524;SDS011;5819;49.648;8.330;2023-02-19T01:54:04;6.38;;;5.45;;
11524;SDS011;5819;49.648;8.330;2023-02-19T01:56:36;6.65;;;5.45;;
11524;SDS011;5819;49.648;8.330;2023-02-19T01:59:06;7.45;;;5.40;;
11524;SDS011;5819;49.648;8.330;2023-02-19T02:01:35;6.40;;;5.53;;
11524;SDS011;5819;49.648;8.330;2023-02-19T02:04:05;6.18;;;5.38;;
11524;SDS011;5819;49.648;8.330;2023-02-19T02:06:37;5.97;;;5.10;;
11524;SDS011;5819;49.648;8.330;2023-02-19T02:09:10;5.60;;;5.13;;
11524;SDS011;5819;49.648;8.330;2023-02-19T02:11:59;5.82;;;5.32;;
11524;SDS011;5819;49.648;8.330;2023-02-19T02:14:28;5.78;;;5.10;;
11524;SDS011;5819;49.648;8.330;2023-02-19T02:17:00;5.63;;;5.00;;
11524;SDS011;5819;49.648;8.330;2023-02-19T02:22:37;5.50;;;5.00;;
11524;SDS011;5819;49.648;8.330;2023-02-19T02:25:19;6.13;;;4.88;;
11524;SDS011;5819;49.648;8.330;2023-02-19T02:28:14;5.88;;;5.10;;
11524;SDS011;5819;49.648;8.330;2023-02-19T02:30:51;5.95;;;5.25;;
11524;SDS011;5819;49.648;8.330;2023-02-19T02:33:25;5.55;;;5.05;;
11524;SDS011;5819;49.648;8.330;2023-02-19T02:36:02;6.85;;;5.35;;
11524;SDS011;5819;49.648;8.330;2023-02-19T02:38:36;5.75;;;5.13;;
11524;SDS011;5819;49.648;8.330;2023-02-19T02:41:06;6.93;;;5.78;;
11524;SDS011;5819;49.648;8.330;2023-02-19T02:43:35;6.38;;;5.78;;
11524;SDS011;5819;49.648;8.330;2023-02-19T02:46:05;6.57;;;5.85;;
11524;SDS011;5819;49.648;8.330;2023-02-19T02:48:37;6.97;;;6.28;;
11524;SDS011;5819;49.648;8.330;2023-02-19T02:51:09;6.10;;;5.50;;
11524;SDS011;5819;49.648;8.330;2023-02-19T02:54:12;5.50;;;4.97;;
11524;SDS011;5819;49.648;8.330;2023-02-19T02:57:05;7.20;;;5.93;;
11524;SDS011;5819;49.648;8.330;2023-02-19T02:59:41;6.22;;;5.63;;
11524;SDS011;5819;49.648;8.330;2023-02-19T03:02:12;8.25;;;5.80;;
11524;SDS011;5819;49.648;8.330;2023-02-19T03:04:46;6.25;;;5.57;;
11524;SDS011;5819;49.648;8.330;2023-02-19T03:07:52;6.20;;;5.60;;
11524;SDS011;5819;49.648;8.330;2023-02-19T03:10:25;6.50;;;5.90;;
11524;SDS011;5819;49.648;8.330;2023-02-19T03:13:01;6.68;;;6.07;;
11524;SDS011;5819;49.648;8.330;2023-02-19T03:15:53;6.63;;;6.03;;
11524;SDS011;5819;49.648;8.330;2023-02-19T03:18:42;8.32;;;6.50;;
11524;SDS011;5819;49.648;8.330;2023-02-19T03:21:33;6.28;;;5.70;;
11524;SDS011;5819;49.648;8.330;2023-02-19T03:24:06;7.82;;;6.90;;
11524;SDS011;5819;49.648;8.330;2023-02-19T03:26:55;6.75;;;6.15;;
11524;SDS011;5819;49.648;8.330;2023-02-19T03:29:30;7.10;;;6.28;;
11524;SDS011;5819;49.648;8.330;2023-02-19T03:32:07;7.30;;;6.60;;
11524;SDS011;5819;49.648;8.330;2023-02-19T03:34:41;7.35;;;6.38;;
11524;SDS011;5819;49.648;8.330;2023-02-19T03:37:17;7.65;;;6.03;;
11524;SDS011;5819;49.648;8.330;2023-02-19T03:39:51;8.45;;;6.00;;
11524;SDS011;5819;49.648;8.330;2023-02-19T03:42:23;6.95;;;6.25;;
11524;SDS011;5819;49.648;8.330;2023-02-19T03:45:08;6.53;;;5.93;;
11524;SDS011;5819;49.648;8.330;2023-02-19T03:47:46;7.93;;;6.68;;
11524;SDS011;5819;49.648;8.330;2023-02-19T03:50:20;7.32;;;6.63;;
11524;SDS011;5819;49.648;8.330;2023-02-19T03:52:57;6.90;;;6.20;;
11524;SDS011;5819;49.648;8.330;2023-02-19T03:55:31;7.28;;;6.57;;
11524;SDS011;5819;49.648;8.330;2023-02-19T03:58:07;7.97;;;6.38;;
11524;SDS011;5819;49.648;8.330;2023-02-19T04:00:41;8.57;;;6.55;;
11524;SDS011;5819;49.648;8.330;2023-02-19T04:03:17;7.00;;;5.95;;
11524;SDS011;5819;49.648;8.330;2023-02-19T04:05:54;6.90;;;5.85;;
11524;SDS011;5819;49.648;8.330;2023-02-19T04:08:27;6.90;;;6.20;;
11524;SDS011;5819;49.648;8.330;2023-02-19T04:11:01;6.93;;;6.22;;
11524;SDS011;5819;49.648;8.330;2023-02-19T04:13:33;7.93;;;6.55;;
11524;SDS011;5819;49.648;8.330;2023-02-19T04:16:06;6.95;;;6.30;;
11524;SDS011;5819;49.648;8.330;2023-02-19T04:18:37;7.60;;;6.90;;
11524;SDS011;5819;49.648;8.330;2023-02-19T04:21:08;7.68;;;6.88;;
11524;SDS011;5819;49.648;8.330;2023-02-19T04:23:38;7.78;;;6.88;;
11524;SDS011;5819;49.648;8.330;2023-02-19T04:26:09;7.78;;;6.97;;
11524;SDS011;5819;49.648;8.330;2023-02-19T04:28:39;7.75;;;6.95;;
11524;SDS011;5819;49.648;8.330;2023-02-19T04:31:09;7.25;;;6.25;;
11524;SDS011;5819;49.648;8.330;2023-02-19T04:33:38;8.75;;;6.70;;
11524;SDS011;5819;49.648;8.330;2023-02-19T04:36:08;8.63;;;7.25;;
11524;SDS011;5819;49.648;8.330;2023-02-19T04:38:38;8.23;;;7.00;;
11524;SDS011;5819;49.648;8.330;2023-02-19T04:41:06;8.13;;;7.30;;
11524;SDS011;5819;49.648;8.330;2023-02-19T04:43:35;8.30;;;7.43;;
11524;SDS011;5819;49.648;8.330;2023-02-19T04:46:03;8.07;;;6.82;;
11524;SDS011;5819;49.648;8.330;2023-02-19T04:48:31;8.07;;;7.25;;
11524;SDS011;5819;49.648;8.330;2023-02-19T04:50:58;8.38;;;7.57;;
11524;SDS011;5819;49.648;8.330;2023-02-19T04:53:32;11.18;;;8.13;;
11524;SDS011;5819;49.648;8.330;2023-02-19T04:56:03;8.95;;;8.05;;
11524;SDS011;5819;49.648;8.330;2023-02-19T04:58:32;8.77;;;7.90;;
11524;SDS011;5819;49.648;8.330;2023-02-19T05:01:01;10.68;;;8.23;;
11524;SDS011;5819;49.648;8.330;2023-02-19T05:03:29;8.85;;;7.93;;
11524;SDS011;5819;49.648;8.330;2023-02-19T05:06:00;8.77;;;7.88;;
11524;SDS011;5819;49.648;8.330;2023-02-19T05:08:29;8.75;;;7.80;;
11524;SDS011;5819;49.648;8.330;2023-02-19T05:10:58;8.70;;;7.72;;
11524;SDS011;5819;49.648;8.330;2023-02-19T05:13:27;7.53;;;6.70;;
11524;SDS011;5819;49.648;8.330;2023-02-19T05:15:56;7.72;;;6.72;;
11524;SDS011;5819;49.648;8.330;2023-02-19T05:18:25;8.52;;;7.32;;
11524;SDS011;5819;49.648;8.330;2023-02-19T05:20:52;7.82;;;7.13;;
11524;SDS011;5819;49.648;8.330;2023-02-19T05:23:20;7.30;;;6.53;;
11524;SDS011;5819;49.648;8.330;2023-02-19T05:25:48;7.75;;;6.97;;
11524;SDS011;5819;49.648;8.330;2023-02-19T05:28:17;7.68;;;6.93;;
11524;SDS011;5819;49.648;8.330;2023-02-19T05:30:46;7.88;;;7.18;;
11524;SDS011;5819;49.648;8.330;2023-02-19T05:33:16;9.27;;;6.57;;
11524;SDS011;5819;49.648;8.330;2023-02-19T05:35:46;7.93;;;7.15;;
11524;SDS011;5819;49.648;8.330;2023-02-19T05:38:16;8.00;;;7.20;;
11524;SDS011;5819;49.648;8.330;2023-02-19T05:40:44;9.00;;;8.10;;
11524;SDS011;5819;49.648;8.330;2023-02-19T05:43:12;8.27;;;7.47;;
11524;SDS011;5819;49.648;8.330;2023-02-19T05:45:42;9.45;;;7.78;;
11524;SDS011;5819;49.648;8.330;2023-02-19T05:48:09;8.57;;;7.05;;
11524;SDS011;5819;49.648;8.330;2023-02-19T05:50:37;7.00;;;6.40;;
11524;SDS011;5819;49.648;8.330;2023-02-19T05:53:15;7.13;;;6.43;;
11524;SDS011;5819;49.648;8.330;2023-02-19T05:55:43;7.07;;;6.43;;
11524;SDS011;5819;49.648;8.330;2023-02-19T05:58:11;6.75;;;6.15;;
11524;SDS011;5819;49.648;8.330;2023-02-19T06:00:39;6.80;;;6.20;;
11524;SDS011;5819;49.648;8.330;2023-02-19T06:03:08;6.60;;;6.00;;
11524;SDS011;5819;49.648;8.330;2023-02-19T06:05:36;6.82;;;6.10;;
11524;SDS011;5819;49.648;8.330;2023-02-19T06:08:04;6.78;;;6.18;;
11524;SDS011;5819;49.648;8.330;2023-02-19T06:10:31;6.20;;;5.60;;
11524;SDS011;5819;49.648;8.330;2023-02-19T06:13:02;6.22;;;5.63;;
11524;SDS011;5819;49.648;8.330;2023-02-19T06:15:29;6.15;;;5.55;;
11524;SDS011;5819;49.648;8.330;2023-02-19T06:17:57;6.00;;;5.40;;
11524;SDS011;5819;49.648;8.330;2023-02-19T06:20:27;5.43;;;4.93;;
11524;SDS011;5819;49.648;8.330;2023-02-19T06:22:55;5.50;;;5.00;;
11524;SDS011;5819;49.648;8.330;2023-02-19T06:25:22;5.63;;;5.13;;
11524;SDS011;5819;49.648;8.330;2023-02-19T06:27:50;6.03;;;5.07;;
11524;SDS011;5819;49.648;8.330;2023-02-19T06:30:18;6.18;;;5.00;;
11524;SDS011;5819;49.648;8.330;2023-02-19T06:32:46;5.78;;;5.03;;
11524;SDS011;5819;49.648;8.330;2023-02-19T06:35:14;5.32;;;4.93;;
11524;SDS011;5819;49.648;8.330;2023-02-19T06:37:43;5.95;;;5.32;;
11524;SDS011;5819;49.648;8.330;2023-02-19T06:40:12;5.45;;;4.57;;
11524;SDS011;5819;49.648;8.330;2023-02-19T06:42:40;5.53;;;5.03;;
11524;SDS011;5819;49.648;8.330;2023-02-19T06:45:08;4.57;;;4.18;;
11524;SDS011;5819;49.648;8.330;2023-02-19T06:47:36;4.45;;;4.05;;
11524;SDS011;5819;49.648;8.330;2023-02-19T06:50:04;5.25;;;4.15;;
11524;SDS011;5819;49.648;8.330;2023-02-19T06:52:32;6.13;;;5.43;;
11524;SDS011;5819;49.648;8.330;2023-02-19T06:55:02;4.80;;;4.35;;
11524;SDS011;5819;49.648;8.330;2023-02-19T06:57:30;4.57;;;4.18;;
11524;SDS011;5819;49.648;8.330;2023-02-19T06:59:58;4.88;;;4.15;;
11524;SDS011;5819;49.648;8.330;2023-02-19T07:02:26;4.20;;;3.80;;
11524;SDS011;5819;49.648;8.330;2023-02-19T07:04:54;5.07;;;4.03;;
11524;SDS011;5819;49.648;8.330;2023-02-19T07:07:22;3.67;;;3.38;;
11524;SDS011;5819;49.648;8.330;2023-02-19T07:09:49;4.05;;;3.20;;
11524;SDS011;5819;49.648;8.330;2023-02-19T07:12:18;3.58;;;3.28;;
11524;SDS011;5819;49.648;8.330;2023-02-19T07:14:46;5.13;;;3.53;;
11524;SDS011;5819;49.648;8.330;2023-02-19T07:17:14;4.53;;;3.25;;
11524;SDS011;5819;49.648;8.330;2023-02-19T07:19:42;3.75;;;2.95;;
11524;SDS011;5819;49.648;8.330;2023-02-19T07:22:10;5.65;;;2.92;;
11524;SDS011;5819;49.648;8.330;2023-02-19T07:24:37;4.00;;;2.83;;
11524;SDS011;5819;49.648;8.330;2023-02-19T07:27:06;4.53;;;2.67;;
11524;SDS011;5819;49.648;8.330;2023-02-19T07:29:35;4.28;;;2.83;;
11524;SDS011;5819;49.648;8.330;2023-02-19T07:32:04;2.78;;;2.55;;
11524;SDS011;5819;49.648;8.330;2023-02-19T07:34:32;2.92;;;2.58;;
11524;SDS011;5819;49.648;8.330;2023-02-19T07:36:59;2.92;;;2.50;;
11524;SDS011;5819;49.648;8.330;2023-02-19T07:39:28;2.92;;;2.63;;
11524;SDS011;5819;49.648;8.330;2023-02-19T07:41:56;5.47;;;2.80;;
11524;SDS011;5819;49.648;8.330;2023-02-19T07:44:25;3.22;;;2.58;;
11524;SDS011;5819;49.648;8.330;2023-02-19T07:46:54;2.92;;;2.45;;
11524;SDS011;5819;49.648;8.330;2023-02-19T07:49:22;4.95;;;2.80;;
11524;SDS011;5819;49.648;8.330;2023-02-19T07:51:50;2.85;;;2.50;;
11524;SDS011;5819;49.648;8.330;2023-02-19T07:54:17;4.40;;;2.63;;
11524;SDS011;5819;49.648;8.330;2023-02-19T07:56:45;3.45;;;2.63;;
11524;SDS011;5819;49.648;8.330;2023-02-19T07:59:14;3.45;;;2.83;;
11524;SDS011;5819;49.648;8.330;2023-02-19T08:01:44;4.25;;;2.40;;
11524;SDS011;5819;49.648;8.330;2023-02-19T08:04:31;3.58;;;2.78;;
11524;SDS011;5819;49.648;8.330;2023-02-19T08:06:59;4.15;;;3.00;;
11524;SDS011;5819;49.648;8.330;2023-02-19T08:09:27;4.32;;;3.20;;
11524;SDS011;5819;49.648;8.330;2023-02-19T08:11:55;3.25;;;2.95;;
11524;SDS011;5819;49.648;8.330;2023-02-19T08:14:41;5.57;;;3.40;;
11524;SDS011;5819;49.648;8.330;2023-02-19T08:17:08;3.85;;;3.45;;
11524;SDS011;5819;49.648;8.330;2023-02-19T08:19:38;4.70;;;3.35;;
11524;SDS011;5819;49.648;8.330;2023-02-19T08:22:06;3.88;;;3.47;;
11524;SDS011;5819;49.648;8.330;2023-02-19T08:24:34;4.10;;;3.80;;
11524;SDS011;5819;49.648;8.330;2023-02-19T08:27:03;6.32;;;3.78;;
11524;SDS011;5819;49.648;8.330;2023-02-19T08:29:30;5.32;;;3.60;;
11524;SDS011;5819;49.648;8.330;2023-02-19T08:32:00;6.95;;;3.75;;
11524;SDS011;5819;49.648;8.330;2023-02-19T08:34:29;4.55;;;3.00;;
11524;SDS011;5819;49.648;8.330;2023-02-19T08:36:58;4.68;;;3.08;;
11524;SDS011;5819;49.648;8.330;2023-02-19T08:39:27;5.20;;;2.90;;
11524;SDS011;5819;49.648;8.330;2023-02-19T08:41:55;3.63;;;2.83;;
11524;SDS011;5819;49.648;8.330;2023-02-19T08:44:23;5.75;;;3.03;;
11524;SDS011;5819;49.648;8.330;2023-02-19T08:46:50;4.22;;;2.60;;
11524;SDS011;5819;49.648;8.330;2023-02-19T08:49:18;5.20;;;2.60;;
11524;SDS011;5819;49.648;8.330;2023-02-19T08:51:46;4.88;;;2.47;;
11524;SDS011;5819;49.648;8.330;2023-02-19T08:54:15;3.53;;;2.70;;
11524;SDS011;5819;49.648;8.330;2023-02-19T08:56:43;6.32;;;2.55;;
11524;SDS011;5819;49.648;8.330;2023-02-19T08:59:10;7.55;;;2.67;;
11524;SDS011;5819;49.648;8.330;2023-02-19T09:01:38;5.40;;;2.65;;
11524;SDS011;5819;49.648;8.330;2023-02-19T09:04:07;5.90;;;2.97;;
11524;SDS011;5819;49.648;8.330;2023-02-19T09:06:38;4.70;;;2.60;;
11524;SDS011;5819;49.648;8.330;2023-02-19T09:09:05;4.18;;;2.88;;
11524;SDS011;5819;49.648;8.330;2023-02-19T09:11:34;5.22;;;2.35;;
11524;SDS011;5819;49.648;8.330;2023-02-19T09:14:05;3.40;;;2.45;;
11524;SDS011;5819;49.648;8.330;2023-02-19T09:16:33;7.35;;;4.97;;
11524;SDS011;5819;49.648;8.330;2023-02-19T09:19:02;7.22;;;4.35;;
11524;SDS011;5819;49.648;8.330;2023-02-19T09:21:30;6.18;;;3.38;;
11524;SDS011;5819;49.648;8.330;2023-02-19T09:23:58;6.05;;;2.80;;
11524;SDS011;5819;49.648;8.330;2023-02-19T09:26:26;5.32;;;3.33;;
11524;SDS011;5819;49.648;8.330;2023-02-19T09:28:55;5.03;;;3.15;;
11524;SDS011;5819;49.648;8.330;2023-02-19T09:31:23;6.78;;;3.78;;
11524;SDS011;5819;49.648;8.330;2023-02-19T09:33:51;5.05;;;3.90;;
11524;SDS011;5819;49.648;8.330;2023-02-19T09:36:19;4.97;;;3.20;;
11524;SDS011;5819;49.648;8.330;2023-02-19T09:38:46;5.88;;;3.03;;
11524;SDS011;5819;49.648;8.330;2023-02-19T09:41:16;2.92;;;2.60;;
11524;SDS011;5819;49.648;8.330;2023-02-19T09:43:49;4.85;;;2.35;;
11524;SDS011;5819;49.648;8.330;2023-02-19T09:46:23;5.60;;;2.60;;
11524;SDS011;5819;49.648;8.330;2023-02-19T09:48:58;4.93;;;2.45;;
11524;SDS011;5819;49.648;8.330;2023-02-19T09:51:31;3.97;;;2.88;;
11524;SDS011;5819;49.648;8.330;2023-02-19T09:54:01;4.15;;;2.78;;
11524;SDS011;5819;49.648;8.330;2023-02-19T09:56:32;4.15;;;2.65;;
11524;SDS011;5819;49.648;8.330;2023-02-19T09:59:01;5.82;;;2.72;;
11524;SDS011;5819;49.648;8.330;2023-02-19T10:01:31;8.07;;;2.95;;
11524;SDS011;5819;49.648;8.330;2023-02-19T10:04:05;3.97;;;2.75;;
11524;SDS011;5819;49.648;8.330;2023-02-19T10:06:33;8.27;;;3.05;;
11524;SDS011;5819;49.648;8.330;2023-02-19T10:09:10;6.25;;;2.92;;
11524;SDS011;5819;49.648;8.330;2023-02-19T10:11:47;5.70;;;3.22;;
11524;SDS011;5819;49.648;8.330;2023-02-19T10:14:16;5.18;;;3.47;;
11524;SDS011;5819;49.648;8.330;2023-02-19T10:16:49;7.93;;;3.50;;
11524;SDS011;5819;49.648;8.330;2023-02-19T10:19:18;16.23;;;11.02;;
11524;SDS011;5819;49.648;8.330;2023-02-19T10:21:46;8.30;;;4.40;;
11524;SDS011;5819;49.648;8.330;2023-02-19T10:24:15;6.30;;;2.55;;
11524;SDS011;5819;49.648;8.330;2023-02-19T10:26:48;4.05;;;2.47;;
11524;SDS011;5819;49.648;8.330;2023-02-19T10:29:16;4.20;;;2.58;;
11524;SDS011;5819;49.648;8.330;2023-02-19T10:31:45;6.78;;;3.08;;
11524;SDS011;5819;49.648;8.330;2023-02-19T10:34:17;4.13;;;2.45;;
11524;SDS011;5819;49.648;8.330;2023-02-19T10:36:47;5.68;;;2.80;;
11524;SDS011;5819;49.648;8.330;2023-02-19T10:39:26;5.47;;;3.20;;
11524;SDS011;5819;49.648;8.330;2023-02-19T10:42:05;5.78;;;2.85;;
11524;SDS011;5819;49.648;8.330;2023-02-19T10:44:41;4.20;;;2.20;;
11524;SDS011;5819;49.648;8.330;2023-02-19T10:47:14;4.95;;;2.50;;
11524;SDS011;5819;49.648;8.330;2023-02-19T10:49:47;5.20;;;2.58;;
11524;SDS011;5819;49.648;8.330;2023-02-19T10:52:19;4.13;;;2.17;;
11524;SDS011;5819;49.648;8.330;2023-02-19T10:54:50;6.20;;;2.50;;
11524;SDS011;5819;49.648;8.330;2023-02-19T10:57:23;4.18;;;2.15;;
11524;SDS011;5819;49.648;8.330;2023-02-19T10:59:58;5.53;;;2.67;;
11524;SDS011;5819;49.648;8.330;2023-02-19T11:02:29;8.15;;;2.55;;
11524;SDS011;5819;49.648;8.330;2023-02-19T11:05:03;6.15;;;2.35;;
11524;SDS011;5819;49.648;8.330;2023-02-19T11:07:42;5.05;;;2.42;;
11524;SDS011;5819;49.648;8.330;2023-02-19T11:10:19;4.22;;;1.70;;
11524;SDS011;5819;49.648;8.330;2023-02-19T11:12:52;4.45;;;1.90;;
11524;SDS011;5819;49.648;8.330;2023-02-19T11:15:23;4.40;;;2.00;;
11524;SDS011;5819;49.648;8.330;2023-02-19T11:17:54;3.33;;;1.85;;
11524;SDS011;5819;49.648;8.330;2023-02-19T11:20:27;4.50;;;2.22;;
11524;SDS011;5819;49.648;8.330;2023-02-19T11:23:13;5.22;;;1.81;;
11524;SDS011;5819;49.648;8.330;2023-02-19T11:26:37;5.03;;;2.00;;
11524;SDS011;5819;49.648;8.330;2023-02-19T11:29:11;4.00;;;1.65;;
11524;SDS011;5819;49.648;8.330;2023-02-19T11:31:49;5.30;;;1.30;;
11524;SDS011;5819;49.648;8.330;2023-02-19T11:34:45;4.82;;;1.60;;
11524;SDS011;5819;49.648;8.330;2023-02-19T11:37:15;3.80;;;0.95;;
11524;SDS011;5819;49.648;8.330;2023-02-19T11:39:45;6.47;;;1.50;;
11524;SDS011;5819;49.648;8.330;2023-02-19T11:42:23;3.30;;;1.50;;
11524;SDS011;5819;49.648;8.330;2023-02-19T11:48:03;4.15;;;1.60;;
11524;SDS011;5819;49.648;8.330;2023-02-19T11:50:58;5.30;;;1.60;;
11524;SDS011;5819;49.648;8.330;2023-02-19T11:53:44;4.05;;;1.30;;
11524;SDS011;5819;49.648;8.330;2023-02-19T11:56:17;3.42;;;1.75;;
11524;SDS011;5819;49.648;8.330;2023-02-19T11:58:51;3.67;;;1.38;;
11524;SDS011;5819;49.648;8.330;2023-02-19T12:01:30;4.18;;;1.27;;
11524;SDS011;5819;49.648;8.330;2023-02-19T12:04:17;7.43;;;2.67;;
11524;SDS011;5819;49.648;8.330;2023-02-19T12:07:05;4.22;;;1.50;;
11524;SDS011;5819;49.648;8.330;2023-02-19T12:09:46;4.20;;;1.33;;
11524;SDS011;5819;49.648;8.330;2023-02-19T12:12:37;3.53;;;1.80;;
11524;SDS011;5819;49.648;8.330;2023-02-19T12:15:19;3.78;;;1.63;;
11524;SDS011;5819;49.648;8.330;2023-02-19T12:21:05;5.57;;;1.40;;
11524;SDS011;5819;49.648;8.330;2023-02-19T12:23:48;5.47;;;1.70;;
11524;SDS011;5819;49.648;8.330;2023-02-19T12:26:40;9.05;;;1.65;;
11524;SDS011;5819;49.648;8.330;2023-02-19T12:29:19;3.92;;;1.55;;
11524;SDS011;5819;49.648;8.330;2023-02-19T12:32:15;7.10;;;2.55;;
11524;SDS011;5819;49.648;8.330;2023-02-19T12:38:10;6.47;;;1.52;;
11524;SDS011;5819;49.648;8.330;2023-02-19T12:40:49;4.70;;;1.38;;
11524;SDS011;5819;49.648;8.330;2023-02-19T12:43:30;6.18;;;1.65;;
11524;SDS011;5819;49.648;8.330;2023-02-19T12:46:02;4.50;;;1.65;;
11524;SDS011;5819;49.648;8.330;2023-02-19T12:48:35;5.15;;;1.60;;
11524;SDS011;5819;49.648;8.330;2023-02-19T12:51:13;6.57;;;1.65;;
11524;SDS011;5819;49.648;8.330;2023-02-19T12:53:46;5.95;;;1.85;;
11524;SDS011;5819;49.648;8.330;2023-02-19T12:56:22;6.20;;;1.90;;
11524;SDS011;5819;49.648;8.330;2023-02-19T12:58:58;5.15;;;1.48;;
11524;SDS011;5819;49.648;8.330;2023-02-19T13:01:34;4.65;;;1.63;;
11524;SDS011;5819;49.648;8.330;2023-02-19T13:04:13;5.50;;;1.92;;
11524;SDS011;5819;49.648;8.330;2023-02-19T13:06:49;6.88;;;2.10;;
11524;SDS011;5819;49.648;8.330;2023-02-19T13:09:25;5.15;;;2.05;;
11524;SDS011;5819;49.648;8.330;2023-02-19T13:12:01;3.47;;;1.80;;
11524;SDS011;5819;49.648;8.330;2023-02-19T13:14:36;3.90;;;1.92;;
11524;SDS011;5819;49.648;8.330;2023-02-19T13:17:13;2.72;;;1.42;;
11524;SDS011;5819;49.648;8.330;2023-02-19T13:19:49;4.57;;;1.85;;
11524;SDS011;5819;49.648;8.330;2023-02-19T13:22:23;5.68;;;1.48;;
11524;SDS011;5819;49.648;8.330;2023-02-19T13:25:16;6.22;;;1.73;;
11524;SDS011;5819;49.648;8.330;2023-02-19T13:27:49;5.78;;;1.80;;
11524;SDS011;5819;49.648;8.330;2023-02-19T13:30:34;6.43;;;2.33;;
11524;SDS011;5819;49.648;8.330;2023-02-19T13:33:19;4.90;;;2.00;;
11524;SDS011;5819;49.648;8.330;2023-02-19T13:36:00;4.00;;;1.63;;
11524;SDS011;5819;49.648;8.330;2023-02-19T13:38:36;5.72;;;1.60;;
11524;SDS011;5819;49.648;8.330;2023-02-19T13:41:15;4.35;;;1.63;;
11524;SDS011;5819;49.648;8.330;2023-02-19T13:43:52;3.83;;;1.42;;
11524;SDS011;5819;49.648;8.330;2023-02-19T13:46:33;6.38;;;1.83;;
11524;SDS011;5819;49.648;8.330;2023-02-19T14:04:48;2.90;;;1.17;;
11524;SDS011;5819;49.648;8.330;2023-02-19T14:07:20;5.03;;;1.10;;
11524;SDS011;5819;49.648;8.330;2023-02-19T14:10:04;2.80;;;1.40;;
11524;SDS011;5819;49.648;8.330;2023-02-19T14:12:39;3.00;;;1.55;;
11524;SDS011;5819;49.648;8.330;2023-02-19T14:21:21;3.65;;;1.42;;
11524;SDS011;5819;49.648;8.330;2023-02-19T14:23:52;5.63;;;1.70;;
11524;SDS011;5819;49.648;8.330;2023-02-19T14:26:25;5.07;;;1.70;;
11524;SDS011;5819;49.648;8.330;2023-02-19T14:28:57;4.75;;;1.95;;
11524;SDS011;5819;49.648;8.330;2023-02-19T14:31:28;6.75;;;1.75;;
11524;SDS011;5819;49.648;8.330;2023-02-19T14:33:58;5.38;;;1.85;;
11524;SDS011;5819;49.648;8.330;2023-02-19T14:36:41;5.63;;;1.80;;
11524;SDS011;5819;49.648;8.330;2023-02-19T14:39:15;6.25;;;1.90;;
11524;SDS011;5819;49.648;8.330;2023-02-19T14:41:47;4.03;;;1.67;;
11524;SDS011;5819;49.648;8.330;2023-02-19T14:44:19;5.75;;;1.73;;
11524;SDS011;5819;49.648;8.330;2023-02-19T14:46:52;5.03;;;1.35;;
11524;SDS011;5819;49.648;8.330;2023-02-19T14:49:26;5.47;;;1.92;;
11524;SDS011;5819;49.648;8.330;2023-02-19T14:52:00;7.57;;;2.00;;
11524;SDS011;5819;49.648;8.330;2023-02-19T14:54:37;4.13;;;1.60;;
11524;SDS011;5819;49.648;8.330;2023-02-19T14:57:11;5.47;;;1.73;;
11524;SDS011;5819;49.648;8.330;2023-02-19T14:59:50;4.55;;;1.88;;
11524;SDS011;5819;49.648;8.330;2023-02-19T15:02:21;6.18;;;2.25;;
11524;SDS011;5819;49.648;8.330;2023-02-19T15:04:51;5.70;;;2.38;;
11524;SDS011;5819;49.648;8.330;2023-02-19T15:07:22;5.75;;;2.17;;
11524;SDS011;5819;49.648;8.330;2023-02-19T15:09:53;5.78;;;2.30;;
11524;SDS011;5819;49.648;8.330;2023-02-19T15:12:33;5.15;;;1.52;;
11524;SDS011;5819;49.648;8.330;2023-02-19T15:15:15;6.80;;;2.10;;
11524;SDS011;5819;49.648;8.330;2023-02-19T15:17:45;4.90;;;1.70;;
11524;SDS011;5819;49.648;8.330;2023-02-19T15:20:15;3.63;;;1.42;;
11524;SDS011;5819;49.648;8.330;2023-02-19T15:22:47;6.38;;;1.55;;
11524;SDS011;5819;49.648;8.330;2023-02-19T15:25:16;4.47;;;1.52;;
11524;SDS011;5819;49.648;8.330;2023-02-19T15:27:46;3.67;;;1.20;;
11524;SDS011;5819;49.648;8.330;2023-02-19T15:30:19;4.95;;;1.65;;
11524;SDS011;5819;49.648;8.330;2023-02-19T15:32:51;6.57;;;2.10;;
11524;SDS011;5819;49.648;8.330;2023-02-19T15:35:20;6.10;;;2.45;;
11524;SDS011;5819;49.648;8.330;2023-02-19T15:37:52;4.60;;;2.40;;
11524;SDS011;5819;49.648;8.330;2023-02-19T15:40:25;6.60;;;2.53;;
11524;SDS011;5819;49.648;8.330;2023-02-19T15:42:56;3.47;;;1.50;;
11524;SDS011;5819;49.648;8.330;2023-02-19T15:45:26;5.78;;;1.60;;
11524;SDS011;5819;49.648;8.330;2023-02-19T15:47:58;6.55;;;1.70;;
11524;SDS011;5819;49.648;8.330;2023-02-19T15:50:36;3.95;;;1.40;;
11524;SDS011;5819;49.648;8.330;2023-02-19T15:53:13;3.05;;;1.38;;
11524;SDS011;5819;49.648;8.330;2023-02-19T15:55:43;5.47;;;1.60;;
11524;SDS011;5819;49.648;8.330;2023-02-19T15:58:18;4.57;;;1.48;;
11524;SDS011;5819;49.648;8.330;2023-02-19T16:00:54;2.58;;;1.20;;
11524;SDS011;5819;49.648;8.330;2023-02-19T16:03:25;4.20;;;1.60;;
11524;SDS011;5819;49.648;8.330;2023-02-19T16:05:58;4.72;;;1.33;;
11524;SDS011;5819;49.648;8.330;2023-02-19T16:08:29;5.05;;;1.38;;